This is the latest recevied weather packets stored in our database for station/object DG9MHV-10. If no packets are shown the sender has not sent any weather packets the latest 10 day(s).
| Time | Temp. | Humidity | Pressure | Rain* | Wind** | Luminosity | Snow |
|---|---|---|---|---|---|---|---|
| 1777803071 | 27.78° C | 100% | 1015.2 hPa | - | - | - | - |
| 1777802171 | 27.78° C | 100% | 1015.3 hPa | - | - | - | - |
| 1777801271 | 28.89° C | 76% | 1015.5 hPa | - | - | - | - |
| 1777800371 | 28.33° C | 90% | 1015.6 hPa | - | - | - | - |
| 1777799471 | 28.89° C | 82% | 1015.7 hPa | - | - | - | - |
| 1777798571 | 30° C | 91% | 1015.8 hPa | - | - | - | - |
| 1777797671 | 30.56° C | 88% | 1015.8 hPa | - | - | - | - |
| 1777796771 | 30.56° C | 84% | 1015.9 hPa | - | - | - | - |
| 1777795870 | 31.11° C | 84% | 1016 hPa | - | - | - | - |
| 1777794970 | 30.56° C | 93% | 1016 hPa | - | - | - | - |
| 1777794070 | 30.56° C | 89% | 1016.1 hPa | - | - | - | - |
| 1777793170 | 31.67° C | 87% | 1016.1 hPa | - | - | - | - |
| 1777792270 | 30.56° C | 97% | 1016.1 hPa | - | - | - | - |
| 1777791370 | 28.89° C | 100% | 1016.2 hPa | - | - | - | - |
| 1777790470 | 27.78° C | 100% | 1016.2 hPa | - | - | - | - |
| 1777789570 | 26.67° C | 100% | 1016.2 hPa | - | - | - | - |
| 1777788670 | 26.67° C | 100% | 1016.2 hPa | - | - | - | - |
| 1777787770 | 23.89° C | 100% | 1016.2 hPa | - | - | - | - |
| 1777786870 | 21.67° C | 100% | 1016.2 hPa | - | - | - | - |
| 1777785970 | 20° C | 100% | 1016.2 hPa | - | - | - | - |
| 1777785070 | 16.11° C | 100% | 1015.8 hPa | - | - | - | - |
| 1777784170 | 15.56° C | 100% | 1015.3 hPa | - | - | - | - |
| 1777783269 | 11.11° C | 100% | 1014.9 hPa | - | - | - | - |
| 1777782369 | 7.78° C | 100% | 1014.9 hPa | - | - | - | - |
| 1777781469 | 7.22° C | 100% | 1015 hPa | - | - | - | - |
* Rain since midnight (hover to see other rain measurements)
** Current wind speed in m/s (hover to see current wind gust speed)